sensor_id;sensor_type;location;lat;lon;timestamp;temperature;humidity
23283;DHT22;11810;51.178;3.878;2022-10-31T00:02:08;12.80;99.90
23283;DHT22;11810;51.178;3.878;2022-10-31T00:04:34;12.70;99.90
23283;DHT22;11810;51.178;3.878;2022-10-31T00:07:00;12.60;99.90
23283;DHT22;11810;51.178;3.878;2022-10-31T00:09:26;12.50;99.90
23283;DHT22;11810;51.178;3.878;2022-10-31T00:11:52;12.40;99.90
23283;DHT22;11810;51.178;3.878;2022-10-31T00:14:18;12.40;99.90
23283;DHT22;11810;51.178;3.878;2022-10-31T00:16:44;12.40;99.90
23283;DHT22;11810;51.178;3.878;2022-10-31T00:19:09;12.30;99.90
23283;DHT22;11810;51.178;3.878;2022-10-31T00:21:35;12.30;99.90
23283;DHT22;11810;51.178;3.878;2022-10-31T00:24:02;12.30;99.90
23283;DHT22;11810;51.178;3.878;2022-10-31T00:26:29;12.30;99.90
23283;DHT22;11810;51.178;3.878;2022-10-31T00:28:56;12.20;99.90
23283;DHT22;11810;51.178;3.878;2022-10-31T00:31:22;12.20;99.90
23283;DHT22;11810;51.178;3.878;2022-10-31T00:33:48;12.00;99.90
23283;DHT22;11810;51.178;3.878;2022-10-31T00:36:17;12.00;99.90
23283;DHT22;11810;51.178;3.878;2022-10-31T00:38:44;11.90;99.90
23283;DHT22;11810;51.178;3.878;2022-10-31T00:41:11;11.90;99.90
23283;DHT22;11810;51.178;3.878;2022-10-31T00:43:37;11.90;99.90
23283;DHT22;11810;51.178;3.878;2022-10-31T00:46:03;11.80;99.90
23283;DHT22;11810;51.178;3.878;2022-10-31T00:48:29;11.80;99.90
23283;DHT22;11810;51.178;3.878;2022-10-31T00:50:56;11.70;99.90
23283;DHT22;11810;51.178;3.878;2022-10-31T00:53:22;11.70;99.90
23283;DHT22;11810;51.178;3.878;2022-10-31T00:55:48;11.70;99.90
23283;DHT22;11810;51.178;3.878;2022-10-31T00:58:14;11.60;99.90
23283;DHT22;11810;51.178;3.878;2022-10-31T01:00:40;11.70;99.90
23283;DHT22;11810;51.178;3.878;2022-10-31T01:03:06;11.60;99.90
23283;DHT22;11810;51.178;3.878;2022-10-31T01:07:06;11.60;99.90
23283;DHT22;11810;51.178;3.878;2022-10-31T01:09:33;11.50;99.90
23283;DHT22;11810;51.178;3.878;2022-10-31T01:11:59;11.50;99.90
23283;DHT22;11810;51.178;3.878;2022-10-31T01:14:24;11.50;99.90
23283;DHT22;11810;51.178;3.878;2022-10-31T01:16:50;11.50;99.90
23283;DHT22;11810;51.178;3.878;2022-10-31T01:19:16;11.50;99.90
23283;DHT22;11810;51.178;3.878;2022-10-31T01:21:42;11.40;99.90
23283;DHT22;11810;51.178;3.878;2022-10-31T01:24:08;11.40;99.90
23283;DHT22;11810;51.178;3.878;2022-10-31T01:26:34;11.30;99.90
23283;DHT22;11810;51.178;3.878;2022-10-31T01:29:03;11.20;99.90
23283;DHT22;11810;51.178;3.878;2022-10-31T01:31:33;11.30;99.90
23283;DHT22;11810;51.178;3.878;2022-10-31T01:34:00;11.40;99.90
23283;DHT22;11810;51.178;3.878;2022-10-31T01:36:32;11.30;99.90
23283;DHT22;11810;51.178;3.878;2022-10-31T01:39:04;11.30;99.90
23283;DHT22;11810;51.178;3.878;2022-10-31T01:41:32;11.30;99.90
23283;DHT22;11810;51.178;3.878;2022-10-31T01:44:00;11.30;99.90
23283;DHT22;11810;51.178;3.878;2022-10-31T01:46:39;11.30;99.90
23283;DHT22;11810;51.178;3.878;2022-10-31T01:49:11;11.20;99.90
23283;DHT22;11810;51.178;3.878;2022-10-31T01:51:45;11.10;99.90
23283;DHT22;11810;51.178;3.878;2022-10-31T01:54:15;11.10;99.90
23283;DHT22;11810;51.178;3.878;2022-10-31T01:56:46;11.10;99.90
23283;DHT22;11810;51.178;3.878;2022-10-31T01:59:16;11.00;99.90
23283;DHT22;11810;51.178;3.878;2022-10-31T02:01:43;10.90;99.90
23283;DHT22;11810;51.178;3.878;2022-10-31T02:04:09;10.90;99.90
23283;DHT22;11810;51.178;3.878;2022-10-31T02:06:45;10.90;99.90
23283;DHT22;11810;51.178;3.878;2022-10-31T02:09:12;11.00;99.90
23283;DHT22;11810;51.178;3.878;2022-10-31T02:11:40;11.10;99.90
23283;DHT22;11810;51.178;3.878;2022-10-31T02:15:16;11.40;99.90
23283;DHT22;11810;51.178;3.878;2022-10-31T02:17:42;11.50;99.90
23283;DHT22;11810;51.178;3.878;2022-10-31T02:20:12;11.60;99.90
23283;DHT22;11810;51.178;3.878;2022-10-31T02:26:08;11.40;99.90
23283;DHT22;11810;51.178;3.878;2022-10-31T02:28:48;11.20;99.90
23283;DHT22;11810;51.178;3.878;2022-10-31T02:31:51;11.10;99.90
23283;DHT22;11810;51.178;3.878;2022-10-31T02:34:28;11.00;99.90
23283;DHT22;11810;51.178;3.878;2022-10-31T02:37:02;10.90;99.90
23283;DHT22;11810;51.178;3.878;2022-10-31T02:42:32;10.90;99.90
23283;DHT22;11810;51.178;3.878;2022-10-31T02:47:38;10.80;99.90
23283;DHT22;11810;51.178;3.878;2022-10-31T02:52:34;10.60;99.90
23283;DHT22;11810;51.178;3.878;2022-10-31T02:58:05;10.50;99.90
23283;DHT22;11810;51.178;3.878;2022-10-31T03:01:18;10.40;99.90
23283;DHT22;11810;51.178;3.878;2022-10-31T03:04:04;10.40;99.90
23283;DHT22;11810;51.178;3.878;2022-10-31T03:06:43;10.40;99.90
23283;DHT22;11810;51.178;3.878;2022-10-31T03:09:23;10.40;99.90
23283;DHT22;11810;51.178;3.878;2022-10-31T03:12:19;10.30;99.90
23283;DHT22;11810;51.178;3.878;2022-10-31T03:19:29;10.40;99.90
23283;DHT22;11810;51.178;3.878;2022-10-31T03:22:30;10.40;99.90
23283;DHT22;11810;51.178;3.878;2022-10-31T03:24:58;10.30;99.90
23283;DHT22;11810;51.178;3.878;2022-10-31T03:27:27;10.20;99.90
23283;DHT22;11810;51.178;3.878;2022-10-31T03:29:57;10.20;99.90
23283;DHT22;11810;51.178;3.878;2022-10-31T03:32:45;10.20;99.90
23283;DHT22;11810;51.178;3.878;2022-10-31T03:35:16;10.20;99.90
23283;DHT22;11810;51.178;3.878;2022-10-31T03:37:44;10.20;99.90
23283;DHT22;11810;51.178;3.878;2022-10-31T03:40:33;10.10;99.90
23283;DHT22;11810;51.178;3.878;2022-10-31T03:43:04;10.10;99.90
23283;DHT22;11810;51.178;3.878;2022-10-31T03:45:39;10.20;99.90
23283;DHT22;11810;51.178;3.878;2022-10-31T03:48:06;10.30;99.90
23283;DHT22;11810;51.178;3.878;2022-10-31T03:51:01;10.20;99.90
23283;DHT22;11810;51.178;3.878;2022-10-31T03:53:32;10.10;99.90
23283;DHT22;11810;51.178;3.878;2022-10-31T03:56:06;10.10;99.90
23283;DHT22;11810;51.178;3.878;2022-10-31T04:00:34;9.90;99.90
23283;DHT22;11810;51.178;3.878;2022-10-31T04:03:07;9.90;99.90
23283;DHT22;11810;51.178;3.878;2022-10-31T04:05:35;9.80;99.90
23283;DHT22;11810;51.178;3.878;2022-10-31T04:08:05;9.90;99.90
23283;DHT22;11810;51.178;3.878;2022-10-31T04:10:34;9.90;99.90
23283;DHT22;11810;51.178;3.878;2022-10-31T04:13:07;9.90;99.90
23283;DHT22;11810;51.178;3.878;2022-10-31T04:15:35;10.10;99.90
23283;DHT22;11810;51.178;3.878;2022-10-31T04:18:04;10.10;99.90
23283;DHT22;11810;51.178;3.878;2022-10-31T04:20:35;10.00;99.90
23283;DHT22;11810;51.178;3.878;2022-10-31T04:23:03;10.00;99.90
23283;DHT22;11810;51.178;3.878;2022-10-31T04:25:29;9.90;99.90
23283;DHT22;11810;51.178;3.878;2022-10-31T04:27:55;9.90;99.90
23283;DHT22;11810;51.178;3.878;2022-10-31T04:30:21;9.80;99.90
23283;DHT22;11810;51.178;3.878;2022-10-31T04:32:47;9.80;99.90
23283;DHT22;11810;51.178;3.878;2022-10-31T04:35:13;9.70;99.90
23283;DHT22;11810;51.178;3.878;2022-10-31T04:37:39;9.80;99.90
23283;DHT22;11810;51.178;3.878;2022-10-31T04:40:06;9.80;99.90
23283;DHT22;11810;51.178;3.878;2022-10-31T04:42:32;9.70;99.90
23283;DHT22;11810;51.178;3.878;2022-10-31T04:44:58;9.80;99.90
23283;DHT22;11810;51.178;3.878;2022-10-31T04:47:23;9.70;99.90
23283;DHT22;11810;51.178;3.878;2022-10-31T04:49:49;9.60;99.90
23283;DHT22;11810;51.178;3.878;2022-10-31T04:52:15;9.50;99.90
23283;DHT22;11810;51.178;3.878;2022-10-31T04:54:41;9.40;99.90
23283;DHT22;11810;51.178;3.878;2022-10-31T04:57:07;9.40;99.90
23283;DHT22;11810;51.178;3.878;2022-10-31T04:59:33;9.40;99.90
23283;DHT22;11810;51.178;3.878;2022-10-31T05:01:59;9.30;99.90
23283;DHT22;11810;51.178;3.878;2022-10-31T05:04:25;9.30;99.90
23283;DHT22;11810;51.178;3.878;2022-10-31T05:06:51;9.30;99.90
23283;DHT22;11810;51.178;3.878;2022-10-31T05:09:16;9.40;99.90
23283;DHT22;11810;51.178;3.878;2022-10-31T05:11:42;9.40;99.90
23283;DHT22;11810;51.178;3.878;2022-10-31T05:14:08;9.40;99.90
23283;DHT22;11810;51.178;3.878;2022-10-31T05:16:34;9.40;99.90
23283;DHT22;11810;51.178;3.878;2022-10-31T05:19:00;9.40;99.90
23283;DHT22;11810;51.178;3.878;2022-10-31T05:21:26;9.30;99.90
23283;DHT22;11810;51.178;3.878;2022-10-31T05:23:52;9.30;99.90
23283;DHT22;11810;51.178;3.878;2022-10-31T05:26:18;9.30;99.90
23283;DHT22;11810;51.178;3.878;2022-10-31T05:28:43;9.10;99.90
23283;DHT22;11810;51.178;3.878;2022-10-31T05:31:09;9.00;99.90
23283;DHT22;11810;51.178;3.878;2022-10-31T05:33:35;8.90;99.90
23283;DHT22;11810;51.178;3.878;2022-10-31T05:36:01;8.80;99.90
23283;DHT22;11810;51.178;3.878;2022-10-31T05:38:27;8.80;99.90
23283;DHT22;11810;51.178;3.878;2022-10-31T05:40:56;8.80;99.90
23283;DHT22;11810;51.178;3.878;2022-10-31T05:43:28;8.80;99.90
23283;DHT22;11810;51.178;3.878;2022-10-31T05:45:56;8.80;99.90
23283;DHT22;11810;51.178;3.878;2022-10-31T05:48:22;8.80;99.90
23283;DHT22;11810;51.178;3.878;2022-10-31T05:50:49;8.80;99.90
23283;DHT22;11810;51.178;3.878;2022-10-31T05:53:15;8.80;99.90
23283;DHT22;11810;51.178;3.878;2022-10-31T05:55:42;8.80;99.90
23283;DHT22;11810;51.178;3.878;2022-10-31T05:58:09;8.80;99.90
23283;DHT22;11810;51.178;3.878;2022-10-31T06:00:36;8.90;99.90
23283;DHT22;11810;51.178;3.878;2022-10-31T06:03:07;9.00;99.90
23283;DHT22;11810;51.178;3.878;2022-10-31T06:05:33;9.00;99.90
23283;DHT22;11810;51.178;3.878;2022-10-31T06:08:00;9.10;99.90
23283;DHT22;11810;51.178;3.878;2022-10-31T06:10:27;9.10;99.90
23283;DHT22;11810;51.178;3.878;2022-10-31T06:12:53;9.10;99.90
23283;DHT22;11810;51.178;3.878;2022-10-31T06:15:19;9.00;99.90
23283;DHT22;11810;51.178;3.878;2022-10-31T06:19:54;9.10;99.90
23283;DHT22;11810;51.178;3.878;2022-10-31T06:22:20;9.20;99.90
23283;DHT22;11810;51.178;3.878;2022-10-31T06:26:54;9.30;99.90
23283;DHT22;11810;51.178;3.878;2022-10-31T06:29:20;9.50;99.90
23283;DHT22;11810;51.178;3.878;2022-10-31T06:31:46;9.70;99.90
23283;DHT22;11810;51.178;3.878;2022-10-31T06:34:12;9.70;99.90
23283;DHT22;11810;51.178;3.878;2022-10-31T06:36:38;9.80;99.90
23283;DHT22;11810;51.178;3.878;2022-10-31T06:39:04;10.00;99.90
23283;DHT22;11810;51.178;3.878;2022-10-31T06:41:30;10.10;99.90
23283;DHT22;11810;51.178;3.878;2022-10-31T06:43:56;10.10;99.90
23283;DHT22;11810;51.178;3.878;2022-10-31T06:46:21;10.30;99.90
23283;DHT22;11810;51.178;3.878;2022-10-31T06:48:47;10.30;99.90
23283;DHT22;11810;51.178;3.878;2022-10-31T06:51:13;10.30;99.90
23283;DHT22;11810;51.178;3.878;2022-10-31T06:53:39;10.30;99.90
23283;DHT22;11810;51.178;3.878;2022-10-31T06:56:05;10.40;99.90
23283;DHT22;11810;51.178;3.878;2022-10-31T06:58:31;10.50;99.90
23283;DHT22;11810;51.178;3.878;2022-10-31T07:00:59;10.60;99.90
23283;DHT22;11810;51.178;3.878;2022-10-31T07:03:26;10.60;99.90
23283;DHT22;11810;51.178;3.878;2022-10-31T07:05:52;10.70;99.90
23283;DHT22;11810;51.178;3.878;2022-10-31T07:08:20;10.70;99.90
23283;DHT22;11810;51.178;3.878;2022-10-31T07:10:54;10.70;99.90
23283;DHT22;11810;51.178;3.878;2022-10-31T07:13:21;10.80;99.90
23283;DHT22;11810;51.178;3.878;2022-10-31T07:15:52;10.90;99.90
23283;DHT22;11810;51.178;3.878;2022-10-31T07:18:18;11.00;99.90
23283;DHT22;11810;51.178;3.878;2022-10-31T07:20:44;11.10;99.90
23283;DHT22;11810;51.178;3.878;2022-10-31T07:23:11;11.20;99.90
23283;DHT22;11810;51.178;3.878;2022-10-31T07:25:38;11.20;99.90
23283;DHT22;11810;51.178;3.878;2022-10-31T07:28:04;11.30;99.90
23283;DHT22;11810;51.178;3.878;2022-10-31T07:30:30;11.40;99.90
23283;DHT22;11810;51.178;3.878;2022-10-31T07:32:56;11.40;99.90
23283;DHT22;11810;51.178;3.878;2022-10-31T07:35:24;11.40;99.90
23283;DHT22;11810;51.178;3.878;2022-10-31T07:37:51;11.60;99.90
23283;DHT22;11810;51.178;3.878;2022-10-31T07:40:17;11.70;99.90
23283;DHT22;11810;51.178;3.878;2022-10-31T07:42:48;11.80;99.90
23283;DHT22;11810;51.178;3.878;2022-10-31T07:45:18;11.90;99.90
23283;DHT22;11810;51.178;3.878;2022-10-31T07:47:49;12.00;99.90
23283;DHT22;11810;51.178;3.878;2022-10-31T07:50:18;12.00;99.90
23283;DHT22;11810;51.178;3.878;2022-10-31T07:52:44;12.10;99.90
23283;DHT22;11810;51.178;3.878;2022-10-31T07:55:11;12.10;99.90
23283;DHT22;11810;51.178;3.878;2022-10-31T07:57:37;12.20;99.90
23283;DHT22;11810;51.178;3.878;2022-10-31T08:00:05;12.30;99.90
23283;DHT22;11810;51.178;3.878;2022-10-31T08:02:32;12.20;99.90
23283;DHT22;11810;51.178;3.878;2022-10-31T08:04:58;12.50;99.90
23283;DHT22;11810;51.178;3.878;2022-10-31T08:07:25;12.50;99.90
23283;DHT22;11810;51.178;3.878;2022-10-31T08:09:51;12.60;99.90
23283;DHT22;11810;51.178;3.878;2022-10-31T08:12:18;12.60;99.90
23283;DHT22;11810;51.178;3.878;2022-10-31T08:14:44;12.50;99.90
23283;DHT22;11810;51.178;3.878;2022-10-31T08:17:10;12.60;99.90
23283;DHT22;11810;51.178;3.878;2022-10-31T08:19:36;12.80;99.90
23283;DHT22;11810;51.178;3.878;2022-10-31T08:22:02;12.90;99.90
23283;DHT22;11810;51.178;3.878;2022-10-31T08:24:28;13.00;99.90
23283;DHT22;11810;51.178;3.878;2022-10-31T08:26:54;13.00;99.90
23283;DHT22;11810;51.178;3.878;2022-10-31T08:29:20;13.20;99.90
23283;DHT22;11810;51.178;3.878;2022-10-31T08:31:46;13.20;99.90
23283;DHT22;11810;51.178;3.878;2022-10-31T08:34:11;13.30;99.90
23283;DHT22;11810;51.178;3.878;2022-10-31T08:36:37;13.40;99.90
23283;DHT22;11810;51.178;3.878;2022-10-31T08:39:03;13.40;99.90
23283;DHT22;11810;51.178;3.878;2022-10-31T08:41:30;13.40;99.90
23283;DHT22;11810;51.178;3.878;2022-10-31T08:43:56;13.50;99.90
23283;DHT22;11810;51.178;3.878;2022-10-31T08:46:22;13.80;99.90
23283;DHT22;11810;51.178;3.878;2022-10-31T08:48:48;14.20;99.90
23283;DHT22;11810;51.178;3.878;2022-10-31T08:51:14;14.50;99.90
23283;DHT22;11810;51.178;3.878;2022-10-31T08:53:40;14.60;99.90
23283;DHT22;11810;51.178;3.878;2022-10-31T08:56:06;14.70;99.90
23283;DHT22;11810;51.178;3.878;2022-10-31T08:58:32;14.60;99.90
23283;DHT22;11810;51.178;3.878;2022-10-31T09:01:00;14.60;99.90
23283;DHT22;11810;51.178;3.878;2022-10-31T09:03:28;14.70;99.90
23283;DHT22;11810;51.178;3.878;2022-10-31T09:05:56;14.80;99.90
23283;DHT22;11810;51.178;3.878;2022-10-31T09:08:22;14.80;99.90
23283;DHT22;11810;51.178;3.878;2022-10-31T09:10:48;14.70;99.90
23283;DHT22;11810;51.178;3.878;2022-10-31T09:13:17;14.80;99.90
23283;DHT22;11810;51.178;3.878;2022-10-31T09:15:45;14.90;99.90
23283;DHT22;11810;51.178;3.878;2022-10-31T09:18:12;15.00;99.90
23283;DHT22;11810;51.178;3.878;2022-10-31T09:20:39;15.10;99.90
23283;DHT22;11810;51.178;3.878;2022-10-31T09:23:17;15.20;99.90
23283;DHT22;11810;51.178;3.878;2022-10-31T09:25:44;15.30;99.90
23283;DHT22;11810;51.178;3.878;2022-10-31T09:28:12;15.40;99.90
23283;DHT22;11810;51.178;3.878;2022-10-31T09:30:39;15.40;99.90
23283;DHT22;11810;51.178;3.878;2022-10-31T09:33:08;15.30;99.90
23283;DHT22;11810;51.178;3.878;2022-10-31T09:35:35;15.40;99.90
23283;DHT22;11810;51.178;3.878;2022-10-31T09:38:06;15.70;99.90
23283;DHT22;11810;51.178;3.878;2022-10-31T09:40:45;15.70;99.90
23283;DHT22;11810;51.178;3.878;2022-10-31T09:46:11;15.80;99.90
23283;DHT22;11810;51.178;3.878;2022-10-31T09:48:55;15.70;99.90
23283;DHT22;11810;51.178;3.878;2022-10-31T09:51:38;15.70;99.90
23283;DHT22;11810;51.178;3.878;2022-10-31T09:54:32;15.70;99.90
23283;DHT22;11810;51.178;3.878;2022-10-31T09:57:00;15.70;99.90
23283;DHT22;11810;51.178;3.878;2022-10-31T09:59:44;15.60;99.90
23283;DHT22;11810;51.178;3.878;2022-10-31T10:15:57;15.80;99.90
23283;DHT22;11810;51.178;3.878;2022-10-31T10:26:16;16.00;99.90
23283;DHT22;11810;51.178;3.878;2022-10-31T10:28:52;16.10;99.90
23283;DHT22;11810;51.178;3.878;2022-10-31T10:31:24;15.90;99.90
23283;DHT22;11810;51.178;3.878;2022-10-31T10:34:23;15.80;99.90
23283;DHT22;11810;51.178;3.878;2022-10-31T10:36:55;15.90;99.90
23283;DHT22;11810;51.178;3.878;2022-10-31T10:40:06;16.00;99.90
23283;DHT22;11810;51.178;3.878;2022-10-31T10:42:34;16.20;99.90
23283;DHT22;11810;51.178;3.878;2022-10-31T10:45:20;16.40;99.90
23283;DHT22;11810;51.178;3.878;2022-10-31T10:48:15;16.80;99.90
23283;DHT22;11810;51.178;3.878;2022-10-31T10:50:48;17.00;99.90
23283;DHT22;11810;51.178;3.878;2022-10-31T10:58:29;17.50;99.90
23283;DHT22;11810;51.178;3.878;2022-10-31T11:00:55;17.80;99.90
23283;DHT22;11810;51.178;3.878;2022-10-31T11:03:21;18.10;99.90
23283;DHT22;11810;51.178;3.878;2022-10-31T11:05:50;18.20;99.90
23283;DHT22;11810;51.178;3.878;2022-10-31T11:08:34;18.20;99.90
23283;DHT22;11810;51.178;3.878;2022-10-31T11:13:58;19.00;99.90
23283;DHT22;11810;51.178;3.878;2022-10-31T11:21:38;18.30;99.90
23283;DHT22;11810;51.178;3.878;2022-10-31T11:24:22;18.30;99.90
23283;DHT22;11810;51.178;3.878;2022-10-31T11:26:50;18.10;99.90
23283;DHT22;11810;51.178;3.878;2022-10-31T11:29:23;17.70;99.90
23283;DHT22;11810;51.178;3.878;2022-10-31T11:31:56;17.60;99.90
23283;DHT22;11810;51.178;3.878;2022-10-31T11:34:36;17.50;99.90
23283;DHT22;11810;51.178;3.878;2022-10-31T11:37:19;17.50;99.90
23283;DHT22;11810;51.178;3.878;2022-10-31T11:39:55;17.50;99.90
23283;DHT22;11810;51.178;3.878;2022-10-31T11:42:24;17.50;99.90
23283;DHT22;11810;51.178;3.878;2022-10-31T11:44:52;17.60;99.90
23283;DHT22;11810;51.178;3.878;2022-10-31T11:47:25;17.80;99.90
23283;DHT22;11810;51.178;3.878;2022-10-31T11:49:52;18.10;99.90
23283;DHT22;11810;51.178;3.878;2022-10-31T11:52:28;18.20;99.90
23283;DHT22;11810;51.178;3.878;2022-10-31T11:55:02;18.40;99.90
23283;DHT22;11810;51.178;3.878;2022-10-31T11:57:46;18.50;99.90
23283;DHT22;11810;51.178;3.878;2022-10-31T12:00:37;18.80;99.90
23283;DHT22;11810;51.178;3.878;2022-10-31T12:08:38;19.00;99.90
23283;DHT22;11810;51.178;3.878;2022-10-31T12:30:28;18.80;99.90
23283;DHT22;11810;51.178;3.878;2022-10-31T12:42:11;18.90;99.90
23283;DHT22;11810;51.178;3.878;2022-10-31T12:55:16;19.10;99.90
23283;DHT22;11810;51.178;3.878;2022-10-31T12:57:48;19.20;99.90
23283;DHT22;11810;51.178;3.878;2022-10-31T13:00:20;18.90;99.90
23283;DHT22;11810;51.178;3.878;2022-10-31T13:02:56;19.00;99.90
23283;DHT22;11810;51.178;3.878;2022-10-31T13:05:31;19.00;99.90
23283;DHT22;11810;51.178;3.878;2022-10-31T13:08:08;19.00;99.90
23283;DHT22;11810;51.178;3.878;2022-10-31T13:11:20;19.10;99.90
23283;DHT22;11810;51.178;3.878;2022-10-31T13:13:36;19.10;99.90
23283;DHT22;11810;51.178;3.878;2022-10-31T13:16:24;19.10;99.90
23283;DHT22;11810;51.178;3.878;2022-10-31T13:18:58;19.10;99.90
23283;DHT22;11810;51.178;3.878;2022-10-31T13:24:23;18.80;99.90
23283;DHT22;11810;51.178;3.878;2022-10-31T13:26:54;18.70;99.90
23283;DHT22;11810;51.178;3.878;2022-10-31T13:29:30;18.90;99.90
23283;DHT22;11810;51.178;3.878;2022-10-31T13:32:00;19.20;99.90
23283;DHT22;11810;51.178;3.878;2022-10-31T13:34:53;19.20;99.90
23283;DHT22;11810;51.178;3.878;2022-10-31T13:37:32;19.50;99.90
23283;DHT22;11810;51.178;3.878;2022-10-31T13:45:55;19.50;99.90
23283;DHT22;11810;51.178;3.878;2022-10-31T13:50:58;19.50;99.90
23283;DHT22;11810;51.178;3.878;2022-10-31T13:58:34;19.40;99.90
23283;DHT22;11810;51.178;3.878;2022-10-31T14:03:36;19.40;99.90
23283;DHT22;11810;51.178;3.878;2022-10-31T14:06:03;19.30;99.90
23283;DHT22;11810;51.178;3.878;2022-10-31T14:08:34;19.20;99.90
23283;DHT22;11810;51.178;3.878;2022-10-31T14:11:01;19.10;99.90
23283;DHT22;11810;51.178;3.878;2022-10-31T14:13:42;19.00;99.90
23283;DHT22;11810;51.178;3.878;2022-10-31T14:16:24;18.70;99.90
23283;DHT22;11810;51.178;3.878;2022-10-31T14:19:07;18.70;99.90
23283;DHT22;11810;51.178;3.878;2022-10-31T14:21:44;18.70;99.90
23283;DHT22;11810;51.178;3.878;2022-10-31T14:26:57;18.60;99.90
23283;DHT22;11810;51.178;3.878;2022-10-31T14:29:24;18.60;99.90
23283;DHT22;11810;51.178;3.878;2022-10-31T14:34:37;18.50;99.90
23283;DHT22;11810;51.178;3.878;2022-10-31T14:55:51;18.00;99.90
23283;DHT22;11810;51.178;3.878;2022-10-31T14:58:43;18.00;99.90
23283;DHT22;11810;51.178;3.878;2022-10-31T15:03:46;18.00;99.90
23283;DHT22;11810;51.178;3.878;2022-10-31T15:06:17;18.10;99.90
23283;DHT22;11810;51.178;3.878;2022-10-31T15:08:49;18.20;99.90
23283;DHT22;11810;51.178;3.878;2022-10-31T15:13:53;18.10;99.90
23283;DHT22;11810;51.178;3.878;2022-10-31T15:16:28;18.10;99.90
23283;DHT22;11810;51.178;3.878;2022-10-31T15:18:59;18.00;99.90
23283;DHT22;11810;51.178;3.878;2022-10-31T15:21:27;18.00;99.90
23283;DHT22;11810;51.178;3.878;2022-10-31T15:23:59;18.00;99.90
23283;DHT22;11810;51.178;3.878;2022-10-31T15:26:40;17.90;99.90
23283;DHT22;11810;51.178;3.878;2022-10-31T15:29:13;17.80;99.90
23283;DHT22;11810;51.178;3.878;2022-10-31T15:31:59;17.80;99.90
23283;DHT22;11810;51.178;3.878;2022-10-31T15:34:43;17.70;99.90
23283;DHT22;11810;51.178;3.878;2022-10-31T15:37:19;17.60;99.90
23283;DHT22;11810;51.178;3.878;2022-10-31T15:39:47;17.60;99.90
23283;DHT22;11810;51.178;3.878;2022-10-31T15:44:49;17.70;99.90
23283;DHT22;11810;51.178;3.878;2022-10-31T15:47:18;17.60;99.90
23283;DHT22;11810;51.178;3.878;2022-10-31T15:50:05;17.60;99.90
23283;DHT22;11810;51.178;3.878;2022-10-31T15:52:43;17.80;99.90
23283;DHT22;11810;51.178;3.878;2022-10-31T15:57:41;17.70;99.90
23283;DHT22;11810;51.178;3.878;2022-10-31T16:03:00;17.80;99.90
23283;DHT22;11810;51.178;3.878;2022-10-31T16:05:36;17.60;99.90
23283;DHT22;11810;51.178;3.878;2022-10-31T16:08:02;17.50;99.90
23283;DHT22;11810;51.178;3.878;2022-10-31T16:10:33;17.40;99.90
23283;DHT22;11810;51.178;3.878;2022-10-31T16:13:01;17.30;99.90
23283;DHT22;11810;51.178;3.878;2022-10-31T16:15:27;17.10;99.90
23283;DHT22;11810;51.178;3.878;2022-10-31T16:17:53;17.00;99.90
23283;DHT22;11810;51.178;3.878;2022-10-31T16:20:22;16.90;99.90
23283;DHT22;11810;51.178;3.878;2022-10-31T16:22:51;16.90;99.90
23283;DHT22;11810;51.178;3.878;2022-10-31T16:25:26;17.10;99.90
23283;DHT22;11810;51.178;3.878;2022-10-31T16:27:54;16.80;99.90
23283;DHT22;11810;51.178;3.878;2022-10-31T16:32:59;16.90;99.90
23283;DHT22;11810;51.178;3.878;2022-10-31T16:35:35;16.70;99.90
23283;DHT22;11810;51.178;3.878;2022-10-31T16:38:02;16.70;99.90
23283;DHT22;11810;51.178;3.878;2022-10-31T16:40:28;16.70;99.90
23283;DHT22;11810;51.178;3.878;2022-10-31T16:42:57;16.70;99.90
23283;DHT22;11810;51.178;3.878;2022-10-31T16:45:31;16.70;99.90
23283;DHT22;11810;51.178;3.878;2022-10-31T16:48:06;16.70;99.90
23283;DHT22;11810;51.178;3.878;2022-10-31T16:50:35;16.70;99.90
23283;DHT22;11810;51.178;3.878;2022-10-31T16:53:03;16.60;99.90
23283;DHT22;11810;51.178;3.878;2022-10-31T16:55:29;16.60;99.90
23283;DHT22;11810;51.178;3.878;2022-10-31T16:57:56;16.50;99.90
23283;DHT22;11810;51.178;3.878;2022-10-31T17:00:24;16.40;99.90
23283;DHT22;11810;51.178;3.878;2022-10-31T17:02:53;16.40;99.90
23283;DHT22;11810;51.178;3.878;2022-10-31T17:05:21;16.40;99.90
23283;DHT22;11810;51.178;3.878;2022-10-31T17:07:48;16.40;99.90
23283;DHT22;11810;51.178;3.878;2022-10-31T17:10:14;16.50;99.90
23283;DHT22;11810;51.178;3.878;2022-10-31T17:12:43;16.60;99.90
23283;DHT22;11810;51.178;3.878;2022-10-31T17:15:24;16.60;99.90
23283;DHT22;11810;51.178;3.878;2022-10-31T17:17:50;16.50;99.90
23283;DHT22;11810;51.178;3.878;2022-10-31T17:20:21;16.50;99.90
23283;DHT22;11810;51.178;3.878;2022-10-31T17:22:47;16.30;99.90
23283;DHT22;11810;51.178;3.878;2022-10-31T17:25:18;16.40;99.90
23283;DHT22;11810;51.178;3.878;2022-10-31T17:27:44;16.50;99.90
23283;DHT22;11810;51.178;3.878;2022-10-31T17:30:12;16.40;99.90
23283;DHT22;11810;51.178;3.878;2022-10-31T17:32:39;16.20;99.90
23283;DHT22;11810;51.178;3.878;2022-10-31T17:35:05;16.30;99.90
23283;DHT22;11810;51.178;3.878;2022-10-31T17:37:31;16.40;99.90
23283;DHT22;11810;51.178;3.878;2022-10-31T17:39:57;16.40;99.90
23283;DHT22;11810;51.178;3.878;2022-10-31T17:42:23;16.30;99.90
23283;DHT22;11810;51.178;3.878;2022-10-31T17:44:48;16.30;99.90
23283;DHT22;11810;51.178;3.878;2022-10-31T17:47:14;16.30;99.90
23283;DHT22;11810;51.178;3.878;2022-10-31T17:49:40;16.30;99.90
23283;DHT22;11810;51.178;3.878;2022-10-31T17:52:06;16.30;99.90
23283;DHT22;11810;51.178;3.878;2022-10-31T17:54:32;16.20;99.90
23283;DHT22;11810;51.178;3.878;2022-10-31T17:56:57;16.20;99.90
23283;DHT22;11810;51.178;3.878;2022-10-31T17:59:23;16.10;99.90
23283;DHT22;11810;51.178;3.878;2022-10-31T18:01:49;16.10;99.90
23283;DHT22;11810;51.178;3.878;2022-10-31T18:04:14;16.20;99.90
23283;DHT22;11810;51.178;3.878;2022-10-31T18:06:40;16.20;99.90
23283;DHT22;11810;51.178;3.878;2022-10-31T18:09:06;16.20;99.90
23283;DHT22;11810;51.178;3.878;2022-10-31T18:11:32;16.20;99.90
23283;DHT22;11810;51.178;3.878;2022-10-31T18:13:58;16.10;99.90
23283;DHT22;11810;51.178;3.878;2022-10-31T18:16:26;16.10;99.90
23283;DHT22;11810;51.178;3.878;2022-10-31T18:18:53;16.10;99.90
23283;DHT22;11810;51.178;3.878;2022-10-31T18:21:21;16.20;99.90
23283;DHT22;11810;51.178;3.878;2022-10-31T18:23:47;16.10;99.90
23283;DHT22;11810;51.178;3.878;2022-10-31T18:26:13;16.10;99.90
23283;DHT22;11810;51.178;3.878;2022-10-31T18:28:38;16.20;99.90
23283;DHT22;11810;51.178;3.878;2022-10-31T18:31:04;16.30;99.90
23283;DHT22;11810;51.178;3.878;2022-10-31T18:33:30;16.30;99.90
23283;DHT22;11810;51.178;3.878;2022-10-31T18:36:05;16.30;99.90
23283;DHT22;11810;51.178;3.878;2022-10-31T18:38:31;16.30;99.90
23283;DHT22;11810;51.178;3.878;2022-10-31T18:40:58;16.40;99.90